Time;durP1;ratioP1;P1;durP2;ratioP2;P2;SDS_P1;SDS_P2;PMS_P1;PMS_P2;Temp;Humidity;BMP_temperature;BMP_pressure;BME280_temperature;BME280_humidity;BME280_pressure;Samples;Min_cycle;Max_cycle;Signal;HPM_P1;HPM_P2
2021/06/28 00:00:23;;;;;;;;;;;;;;;19.59;86.72;99688.22;5072352;28;874;-67
2021/06/28 00:02:50;;;;;;;;;;;;;;;19.64;86.46;99698.03;5072417;28;897;-67
2021/06/28 00:05:18;;;;;;;;;;;;;;;19.64;86.38;99695.25;5072289;28;790;-67
2021/06/28 00:07:45;;;;;;;;;;;;;;;19.61;86.22;99701.75;5071729;28;850;-67
2021/06/28 00:10:14;;;;;;;;;;;;;;;19.46;86.08;99702.41;5072192;28;826;-67
2021/06/28 00:12:40;;;;;;;;;;;;;;;19.30;86.18;99703.47;5072435;28;1064;-67
2021/06/28 00:15:10;;;;;;;;;;;;;;;19.14;86.21;99704.53;5071955;28;1326;-67
2021/06/28 00:17:36;;;;;;;;;;;;;;;19.02;86.58;99701.88;5071977;28;905;-67
2021/06/28 00:20:05;;;;;;;;;;;;;;;18.96;87.18;99694.06;5072030;28;896;-67
2021/06/28 00:22:31;;;;;;;;;;;;;;;19.05;87.57;99698.91;5087522;28;1266;-67
2021/06/28 00:24:58;;;;;;;;;;;;;;;19.21;87.53;99695.06;5071916;28;881;-66
2021/06/28 00:27:25;;;;;;;;;;;;;;;19.33;87.35;99698.94;5071836;28;889;-67
2021/06/28 00:29:51;;;;;;;;;;;;;;;19.39;87.21;99697.09;5071982;28;861;-67
2021/06/28 00:32:18;;;;;;;;;;;;;;;19.38;87.13;99681.53;5071752;28;1906;-67
2021/06/28 00:34:45;;;;;;;;;;;;;;;19.38;87.26;99687.13;5071821;28;897;-67
2021/06/28 00:37:12;;;;;;;;;;;;;;;19.40;87.52;99686.69;5071780;28;830;-67
2021/06/28 00:39:38;;;;;;;;;;;;;;;19.49;87.76;99687.44;5071808;28;897;-67
2021/06/28 00:42:05;;;;;;;;;;;;;;;19.63;87.62;99688.06;5071707;28;826;-67
2021/06/28 00:44:31;;;;;;;;;;;;;;;19.75;87.34;99696.34;5071670;28;846;-67
2021/06/28 00:46:57;;;;;;;;;;;;;;;19.84;87.04;99689.94;5071698;28;830;-67
2021/06/28 00:49:24;;;;;;;;;;;;;;;19.91;86.63;99702.88;5071657;28;814;-67
2021/06/28 00:51:53;;;;;;;;;;;;;;;19.83;86.16;99690.44;5071524;28;1889;-67
2021/06/28 00:54:20;;;;;;;;;;;;;;;19.62;86.12;99690.09;5071488;28;786;-67
2021/06/28 00:56:47;;;;;;;;;;;;;;;19.41;86.23;99694.59;5071605;28;894;-67
2021/06/28 00:59:16;;;;;;;;;;;;;;;19.25;86.49;99700.50;5071510;28;837;-67
2021/06/28 01:01:42;;;;;;;;;;;;;;;19.16;86.83;99692.84;5071489;28;870;-67
2021/06/28 01:04:09;;;;;;;;;;;;;;;19.09;86.80;99693.16;5071476;28;830;-67
2021/06/28 01:06:36;;;;;;;;;;;;;;;19.07;87.01;99692.84;5071417;28;873;-67
2021/06/28 01:09:03;;;;;;;;;;;;;;;19.07;87.16;99687.25;5071507;28;806;-67
2021/06/28 01:11:29;;;;;;;;;;;;;;;19.07;87.14;99690.81;5071382;28;1973;-67
2021/06/28 01:13:57;;;;;;;;;;;;;;;19.03;87.02;99681.00;5071281;28;1254;-67
2021/06/28 01:16:24;;;;;;;;;;;;;;;18.94;87.18;99676.94;5071397;28;830;-67
2021/06/28 01:18:52;;;;;;;;;;;;;;;18.87;87.46;99676.47;5088674;28;1581;-67
2021/06/28 01:21:18;;;;;;;;;;;;;;;18.83;87.59;99679.41;5075437;28;866;-67
2021/06/28 01:23:45;;;;;;;;;;;;;;;18.89;87.88;99676.78;5075323;28;881;-67
2021/06/28 01:26:12;;;;;;;;;;;;;;;18.98;87.87;99677.56;5075381;28;822;-67
2021/06/28 01:28:39;;;;;;;;;;;;;;;19.04;87.42;99682.56;5073882;28;1258;-67
2021/06/28 01:31:08;;;;;;;;;;;;;;;19.01;87.39;99675.88;5075239;28;1965;-67
2021/06/28 01:33:35;;;;;;;;;;;;;;;18.96;87.31;99676.47;5075425;28;794;-67
2021/06/28 01:36:02;;;;;;;;;;;;;;;18.92;87.58;99676.63;5075235;28;825;-67
2021/06/28 01:38:29;;;;;;;;;;;;;;;18.88;87.64;99675.22;5075063;28;843;-67
2021/06/28 01:40:55;;;;;;;;;;;;;;;18.83;87.75;99670.22;5075221;28;834;-67
2021/06/28 01:43:25;;;;;;;;;;;;;;;18.85;87.82;99676.91;5075026;28;990;-67
2021/06/28 01:45:52;;;;;;;;;;;;;;;18.89;87.82;99676.78;5074955;28;794;-67
2021/06/28 01:48:18;;;;;;;;;;;;;;;18.90;87.61;99679.09;5074995;28;884;-67
2021/06/28 01:50:46;;;;;;;;;;;;;;;18.89;87.55;99679.59;5074778;28;1943;-67
2021/06/28 01:53:12;;;;;;;;;;;;;;;18.91;87.72;99679.91;5074766;28;810;-67
2021/06/28 01:55:40;;;;;;;;;;;;;;;18.97;87.75;99683.66;5074724;28;830;-67
2021/06/28 01:58:07;;;;;;;;;;;;;;;19.02;87.76;99674.63;5074952;28;810;-67
2021/06/28 02:00:42;;;;;;;;;;;;;;;18.96;87.53;99680.06;5074973;28;817;-67
2021/06/28 02:03:09;;;;;;;;;;;;;;;18.87;87.44;99679.28;5074691;28;1002;-67
2021/06/28 02:05:38;;;;;;;;;;;;;;;18.82;87.59;99683.47;5074551;28;873;-67
2021/06/28 02:08:05;;;;;;;;;;;;;;;18.88;88.06;99683.63;5074591;28;810;-66
2021/06/28 02:10:33;;;;;;;;;;;;;;;18.95;88.10;99681.31;5074438;28;1893;-66
2021/06/28 02:12:59;;;;;;;;;;;;;;;18.96;88.09;99685.66;5074085;28;1176;-67
2021/06/28 02:15:29;;;;;;;;;;;;;;;18.96;88.10;99688.47;5074441;28;990;-70
2021/06/28 02:17:56;;;;;;;;;;;;;;;18.97;88.02;99689.25;5074408;28;921;-70
2021/06/28 02:20:23;;;;;;;;;;;;;;;18.96;88.00;99684.88;5074380;28;877;-71
2021/06/28 02:22:50;;;;;;;;;;;;;;;18.94;87.94;99685.34;5074383;28;802;-71
2021/06/28 02:25:18;;;;;;;;;;;;;;;18.92;87.92;99684.25;5074410;28;838;-71
2021/06/28 02:27:44;;;;;;;;;;;;;;;18.87;87.85;99685.66;5074239;28;841;-71
2021/06/28 02:30:11;;;;;;;;;;;;;;;18.85;88.09;99682.53;5073898;28;806;-71
2021/06/28 02:32:38;;;;;;;;;;;;;;;18.86;88.09;99692.50;5074017;28;1961;-71
2021/06/28 02:35:06;;;;;;;;;;;;;;;18.88;88.18;99687.22;5074074;28;818;-70
2021/06/28 02:37:32;;;;;;;;;;;;;;;18.89;88.25;99685.97;5074031;28;1003;-70
2021/06/28 02:39:59;;;;;;;;;;;;;;;18.85;87.93;99684.56;5074003;28;896;-70
2021/06/28 02:42:26;;;;;;;;;;;;;;;18.84;88.13;99688.56;5073931;28;854;-70
2021/06/28 02:44:52;;;;;;;;;;;;;;;18.78;87.94;99680.03;5073881;28;904;-70
2021/06/28 02:47:19;;;;;;;;;;;;;;;18.70;87.78;99685.09;5073885;28;877;-71
2021/06/28 02:49:45;;;;;;;;;;;;;;;18.65;88.23;99682.09;5073797;28;864;-71
2021/06/28 02:52:12;;;;;;;;;;;;;;;18.63;88.33;99681.81;5089065;28;1937;-70
2021/06/28 02:54:39;;;;;;;;;;;;;;;18.62;88.37;99681.00;5073746;28;857;-71
2021/06/28 02:57:05;;;;;;;;;;;;;;;18.63;88.21;99682.59;5089208;28;806;-71
2021/06/28 02:59:31;;;;;;;;;;;;;;;18.66;88.45;99683.69;5073682;28;865;-70
2021/06/28 03:01:58;;;;;;;;;;;;;;;18.68;88.55;99684.00;5073763;28;877;-70
2021/06/28 03:04:25;;;;;;;;;;;;;;;18.66;88.53;99681.66;5072214;28;1350;-70
2021/06/28 03:06:52;;;;;;;;;;;;;;;18.65;88.69;99677.31;5073466;28;912;-69
2021/06/28 03:09:18;;;;;;;;;;;;;;;18.69;88.83;99686.34;5073489;28;811;-69
2021/06/28 03:11:44;;;;;;;;;;;;;;;18.71;88.81;99691.47;5073316;28;1878;-69
2021/06/28 03:14:10;;;;;;;;;;;;;;;18.71;88.87;99689.47;5073203;28;1380;-69
2021/06/28 03:16:37;;;;;;;;;;;;;;;18.73;88.89;99695.38;5073376;28;814;-68
2021/06/28 03:19:03;;;;;;;;;;;;;;;18.79;88.98;99697.59;5073322;28;932;-69
2021/06/28 03:21:30;;;;;;;;;;;;;;;18.86;89.00;99700.09;5073454;28;829;-68
2021/06/28 03:23:57;;;;;;;;;;;;;;;18.95;88.96;99695.31;5073328;28;818;-70
2021/06/28 03:26:23;;;;;;;;;;;;;;;19.06;88.91;99702.50;5073348;28;822;-69
2021/06/28 03:28:50;;;;;;;;;;;;;;;19.15;88.97;99702.50;5073240;28;889;-70
2021/06/28 03:31:17;;;;;;;;;;;;;;;19.26;88.70;99707.66;5073448;28;1983;-68
2021/06/28 03:33:43;;;;;;;;;;;;;;;19.24;88.46;99708.13;5073215;28;897;-69
2021/06/28 03:36:10;;;;;;;;;;;;;;;19.28;88.71;99714.34;5073266;28;806;-69
2021/06/28 03:38:37;;;;;;;;;;;;;;;19.32;88.16;99709.38;5073197;28;842;-69
2021/06/28 03:41:03;;;;;;;;;;;;;;;19.36;87.92;99712.81;5072189;28;782;-68
2021/06/28 03:43:30;;;;;;;;;;;;;;;19.41;87.81;99710.63;5073011;28;826;-70
2021/06/28 03:45:56;;;;;;;;;;;;;;;19.46;87.39;99719.22;5072988;28;857;-69
2021/06/28 03:48:23;;;;;;;;;;;;;;;19.49;87.21;99718.28;5072667;28;857;-70
2021/06/28 03:50:52;;;;;;;;;;;;;;;19.58;87.27;99723.88;5072410;28;1889;-70
2021/06/28 03:53:18;;;;;;;;;;;;;;;19.72;86.98;99721.75;5072629;28;924;-71
2021/06/28 03:55:45;;;;;;;;;;;;;;;19.86;87.00;99729.50;5088082;28;1274;-70
2021/06/28 03:58:11;;;;;;;;;;;;;;;20.12;86.55;99726.38;5072464;28;893;-71
2021/06/28 04:00:38;;;;;;;;;;;;;;;20.45;85.71;99737.69;5087977;28;1349;-70
2021/06/28 04:03:06;;;;;;;;;;;;;;;20.78;84.41;99731.34;5070981;28;1151;-71
2021/06/28 04:05:33;;;;;;;;;;;;;;;21.14;83.72;99736.00;5072318;28;902;-71
2021/06/28 04:07:59;;;;;;;;;;;;;;;21.49;81.59;99737.56;5072295;28;881;-71
2021/06/28 04:10:25;;;;;;;;;;;;;;;21.68;80.56;99738.16;5072212;28;1890;-71
2021/06/28 04:12:53;;;;;;;;;;;;;;;21.81;79.61;99739.47;5072079;28;1213;-70
2021/06/28 04:15:20;;;;;;;;;;;;;;;21.75;79.13;99738.59;5072139;28;845;-71
2021/06/28 04:17:48;;;;;;;;;;;;;;;21.85;79.27;99741.31;5072199;28;822;-71
2021/06/28 04:20:17;;;;;;;;;;;;;;;22.09;79.57;99736.41;5072044;28;861;-71
2021/06/28 04:22:44;;;;;;;;;;;;;;;22.62;78.53;99744.00;5072548;28;802;-71
2021/06/28 04:25:12;;;;;;;;;;;;;;;23.18;76.97;99741.28;5072277;28;878;-72
2021/06/28 04:27:39;;;;;;;;;;;;;;;23.67;74.43;99744.47;5087500;28;1778;-72
2021/06/28 04:30:07;;;;;;;;;;;;;;;23.86;74.18;99747.78;5072181;28;826;-73
2021/06/28 04:32:35;;;;;;;;;;;;;;;24.15;73.64;99740.38;5071840;28;1963;-72
2021/06/28 04:35:02;;;;;;;;;;;;;;;23.98;73.09;99743.81;5071791;28;877;-73
2021/06/28 04:37:29;;;;;;;;;;;;;;;24.05;72.91;99751.84;5071830;28;837;-72
2021/06/28 04:39:56;;;;;;;;;;;;;;;24.56;70.75;99746.69;5071847;28;897;-72
2021/06/28 04:42:22;;;;;;;;;;;;;;;25.41;68.97;99741.59;5071746;28;944;-72
2021/06/28 04:44:49;;;;;;;;;;;;;;;25.20;69.19;99750.25;5071811;28;862;-74
2021/06/28 04:47:15;;;;;;;;;;;;;;;25.20;69.69;99747.41;5071879;28;835;-71
2021/06/28 04:49:42;;;;;;;;;;;;;;;25.34;69.15;99751.34;5071690;28;832;-75
2021/06/28 04:52:08;;;;;;;;;;;;;;;25.61;68.92;99746.31;5071600;28;1902;-74
2021/06/28 04:54:35;;;;;;;;;;;;;;;25.65;68.67;99744.78;5071806;28;873;-72
2021/06/28 04:57:01;;;;;;;;;;;;;;;25.43;68.83;99753.19;5072485;28;841;-72
2021/06/28 04:59:28;;;;;;;;;;;;;;;25.21;69.26;99754.63;5071777;28;885;-69
2021/06/28 05:01:55;;;;;;;;;;;;;;;24.99;69.16;99752.41;5071819;28;862;-70
2021/06/28 05:04:21;;;;;;;;;;;;;;;25.18;69.58;99754.84;5071797;28;849;-72
2021/06/28 05:15:08;;;;;;;;;;;;;;;27.41;62.67;99759.84;5010731;28;1555;-72
2021/06/28 05:17:34;;;;;;;;;;;;;;;27.49;62.84;99758.03;5011834;28;854;-74
2021/06/28 05:20:02;;;;;;;;;;;;;;;27.95;62.28;99752.91;5011760;28;925;-73
2021/06/28 05:22:30;;;;;;;;;;;;;;;28.66;60.72;99758.66;5011846;28;885;-73
2021/06/28 05:24:57;;;;;;;;;;;;;;;29.29;59.15;99761.69;5011859;28;857;-75
2021/06/28 05:27:23;;;;;;;;;;;;;;;29.87;57.28;99769.00;5011930;28;779;-75
2021/06/28 05:29:56;;;;;;;;;;;;;;;29.99;55.35;99764.72;5011972;28;900;-73
2021/06/28 05:32:26;;;;;;;;;;;;;;;30.03;55.41;99759.47;5011565;28;1919;-73
2021/06/28 05:34:55;;;;;;;;;;;;;;;30.26;54.70;99767.72;5011682;28;881;-73
2021/06/28 05:37:21;;;;;;;;;;;;;;;31.04;53.12;99774.22;5011688;28;874;-75
2021/06/28 05:39:48;;;;;;;;;;;;;;;31.57;51.31;99770.63;5011545;28;831;-73
2021/06/28 05:42:15;;;;;;;;;;;;;;;31.36;50.38;99775.44;5011355;28;862;-74
2021/06/28 05:44:42;;;;;;;;;;;;;;;31.45;50.79;99769.31;5011544;28;873;-76
2021/06/28 05:47:11;;;;;;;;;;;;;;;31.82;47.74;99774.00;5011465;28;881;-74
2021/06/28 05:49:38;;;;;;;;;;;;;;;31.94;46.80;99778.16;5011556;28;803;-74
2021/06/28 05:52:05;;;;;;;;;;;;;;;32.10;46.13;99781.22;5011337;28;1949;-74
2021/06/28 05:54:31;;;;;;;;;;;;;;;32.65;46.90;99780.47;5011622;28;858;-70
2021/06/28 05:56:58;;;;;;;;;;;;;;;33.18;47.14;99785.09;5011480;28;858;-70
2021/06/28 05:59:23;;;;;;;;;;;;;;;33.94;46.15;99788.41;5011345;28;826;-68
2021/06/28 06:01:51;;;;;;;;;;;;;;;34.58;43.85;99791.66;5011391;28;830;-68
2021/06/28 06:04:17;;;;;;;;;;;;;;;35.15;43.73;99799.94;5010755;28;1399;-69
2021/06/28 06:06:44;;;;;;;;;;;;;;;35.34;42.84;99799.53;5014941;28;819;-69
2021/06/28 06:09:11;;;;;;;;;;;;;;;35.39;40.79;99794.91;5014936;28;798;-68
2021/06/28 06:11:37;;;;;;;;;;;;;;;35.22;37.95;99806.25;5014738;28;1890;-73
2021/06/28 06:14:04;;;;;;;;;;;;;;;34.23;39.80;99802.69;5038790;28;1345;-71
2021/06/28 06:16:31;;;;;;;;;;;;;;;33.74;41.96;99801.50;5054556;28;947;-70
2021/06/28 06:18:58;;;;;;;;;;;;;;;33.65;40.36;99801.25;5054384;28;818;-72
2021/06/28 06:21:24;;;;;;;;;;;;;;;33.93;41.59;99797.59;5054327;28;892;-69
2021/06/28 06:23:51;;;;;;;;;;;;;;;34.27;40.15;99794.47;5036375;28;1279;-73
2021/06/28 06:26:18;;;;;;;;;;;;;;;34.48;39.76;99802.94;5054278;28;826;-69
2021/06/28 06:28:45;;;;;;;;;;;;;;;34.51;38.95;99803.88;5054171;28;865;-71
2021/06/28 06:31:12;;;;;;;;;;;;;;;34.13;38.96;99808.19;5054278;28;1969;-72
2021/06/28 06:33:39;;;;;;;;;;;;;;;34.03;39.79;99797.78;5054103;28;878;-70
2021/06/28 06:36:06;;;;;;;;;;;;;;;34.28;40.09;99800.97;5052802;28;1211;-71
2021/06/28 06:38:33;;;;;;;;;;;;;;;34.95;37.90;99806.59;5054030;28;905;-72
2021/06/28 06:40:59;;;;;;;;;;;;;;;34.62;37.60;99802.75;5053825;28;878;-72
2021/06/28 06:43:26;;;;;;;;;;;;;;;34.32;38.92;99807.84;5053921;28;915;-72
2021/06/28 06:45:52;;;;;;;;;;;;;;;34.38;39.14;99798.31;5053873;28;901;-71
2021/06/28 06:48:18;;;;;;;;;;;;;;;34.73;38.05;99805.28;5053859;28;874;-72
2021/06/28 06:50:45;;;;;;;;;;;;;;;35.30;37.37;99804.13;5053959;28;1949;-71
2021/06/28 06:53:12;;;;;;;;;;;;;;;35.55;36.22;99804.28;5053770;28;822;-72
2021/06/28 06:55:38;;;;;;;;;;;;;;;35.40;36.28;99804.28;5053759;28;826;-72
2021/06/28 06:58:08;;;;;;;;;;;;;;;35.47;37.13;99807.16;5053672;28;862;-72
2021/06/28 07:00:36;;;;;;;;;;;;;;;35.83;36.79;99802.47;5053884;28;854;-71
2021/06/28 07:03:02;;;;;;;;;;;;;;;36.03;36.24;99803.53;5053604;28;881;-69
2021/06/28 07:05:29;;;;;;;;;;;;;;;36.16;36.87;99812.69;5053520;28;836;-72
2021/06/28 07:07:56;;;;;;;;;;;;;;;36.16;36.15;99806.94;5052241;28;1215;-72
2021/06/28 07:10:24;;;;;;;;;;;;;;;36.17;35.76;99799.84;5053321;28;873;-72
2021/06/28 07:12:50;;;;;;;;;;;;;;;36.77;36.17;99802.16;5053233;28;1941;-71
2021/06/28 07:15:18;;;;;;;;;;;;;;;37.07;34.97;99803.25;5035316;28;1212;-70
2021/06/28 07:17:44;;;;;;;;;;;;;;;37.08;34.88;99796.88;5053269;28;889;-69
2021/06/28 07:20:12;;;;;;;;;;;;;;;37.16;34.64;99806.25;5053244;28;847;-70
2021/06/28 07:22:38;;;;;;;;;;;;;;;37.85;33.92;99810.53;5035334;28;1258;-69
2021/06/28 07:25:06;;;;;;;;;;;;;;;38.20;33.23;99811.25;5053309;28;901;-72
2021/06/28 07:27:33;;;;;;;;;;;;;;;37.87;33.20;99807.81;5035153;28;902;-69
2021/06/28 07:30:00;;;;;;;;;;;;;;;37.79;34.26;99812.94;5053390;28;838;-69
2021/06/28 07:32:27;;;;;;;;;;;;;;;37.82;33.54;99808.84;5052933;28;1945;-69
2021/06/28 07:34:53;;;;;;;;;;;;;;;37.95;33.99;99808.47;5052951;28;833;-69
2021/06/28 07:37:20;;;;;;;;;;;;;;;38.78;33.59;99805.00;5052954;28;806;-70
2021/06/28 07:39:48;;;;;;;;;;;;;;;39.15;32.54;99813.66;5052870;28;822;-69
2021/06/28 07:42:15;;;;;;;;;;;;;;;39.15;32.06;99812.91;5053010;28;857;-69
2021/06/28 07:44:41;;;;;;;;;;;;;;;39.25;32.79;99812.94;5052949;28;865;-70
2021/06/28 07:47:08;;;;;;;;;;;;;;;39.17;32.62;99818.84;5052667;28;870;-71
2021/06/28 07:49:35;;;;;;;;;;;;;;;39.01;32.79;99809.69;5052811;28;826;-72
2021/06/28 07:52:01;;;;;;;;;;;;;;;38.50;33.15;99809.31;5052750;28;1941;-71
2021/06/28 07:54:29;;;;;;;;;;;;;;;38.17;33.09;99806.69;5052848;28;807;-73
2021/06/28 07:56:56;;;;;;;;;;;;;;;38.05;33.11;99805.69;5052461;28;897;-72
2021/06/28 07:59:22;;;;;;;;;;;;;;;38.23;32.64;99802.75;5052460;28;853;-73
2021/06/28 08:01:49;;;;;;;;;;;;;;;38.12;33.20;99804.81;5052457;28;834;-70
2021/06/28 08:04:15;;;;;;;;;;;;;;;38.21;33.15;99800.47;5052688;28;856;-71
2021/06/28 08:06:43;;;;;;;;;;;;;;;38.40;33.13;99808.47;5051183;28;1184;-70
2021/06/28 08:09:09;;;;;;;;;;;;;;;38.45;33.03;99803.78;5052448;28;869;-70
2021/06/28 08:11:36;;;;;;;;;;;;;;;38.34;32.69;99808.72;5052181;28;1889;-69
2021/06/28 08:14:07;;;;;;;;;;;;;;;38.68;33.14;99809.22;5051883;28;1292;-68
2021/06/28 08:16:34;;;;;;;;;;;;;;;38.66;31.97;99811.97;5052206;28;830;-70
2021/06/28 08:19:01;;;;;;;;;;;;;;;38.57;31.96;99808.44;5050779;28;1447;-70
2021/06/28 08:21:27;;;;;;;;;;;;;;;38.92;32.23;99810.38;5052179;28;827;-69
2021/06/28 08:23:54;;;;;;;;;;;;;;;39.15;31.73;99810.00;5051986;28;865;-70
2021/06/28 08:26:21;;;;;;;;;;;;;;;38.89;31.26;99815.22;5052026;28;787;-73
2021/06/28 08:28:47;;;;;;;;;;;;;;;38.70;31.50;99815.94;5051609;28;811;-71
2021/06/28 08:31:14;;;;;;;;;;;;;;;38.90;31.43;99816.78;5052045;28;1973;-71
2021/06/28 08:33:43;;;;;;;;;;;;;;;39.40;30.40;99809.78;5052320;28;978;-70
2021/06/28 08:36:10;;;;;;;;;;;;;;;39.32;31.55;99801.19;5052965;28;815;-72
2021/06/28 08:38:37;;;;;;;;;;;;;;;39.58;31.59;99816.16;5033865;28;1196;-70
2021/06/28 08:41:03;;;;;;;;;;;;;;;39.43;31.22;99814.31;5052464;28;783;-72
2021/06/28 08:43:30;;;;;;;;;;;;;;;38.93;32.01;99812.66;5052489;28;894;-72
2021/06/28 08:45:56;;;;;;;;;;;;;;;38.88;31.62;99813.72;5052230;28;934;-73
2021/06/28 08:48:23;;;;;;;;;;;;;;;39.08;31.20;99808.78;5051839;28;815;-69
2021/06/28 08:50:52;;;;;;;;;;;;;;;39.12;30.06;99806.19;5051770;28;1890;-70
2021/06/28 08:53:21;;;;;;;;;;;;;;;39.05;31.63;99810.00;5051723;28;874;-72
2021/06/28 08:55:47;;;;;;;;;;;;;;;39.40;31.73;99807.63;5051699;28;841;-71
2021/06/28 08:58:13;;;;;;;;;;;;;;;39.31;31.06;99808.38;5050219;28;1256;-72
2021/06/28 09:00:39;;;;;;;;;;;;;;;38.52;32.32;99803.69;5051362;28;925;-72
2021/06/28 09:03:08;;;;;;;;;;;;;;;38.30;32.56;99801.88;5033632;28;1149;-70
2021/06/28 09:05:51;;;;;;;;;;;;;;;38.52;32.85;99805.84;5051711;28;893;-70
2021/06/28 09:08:19;;;;;;;;;;;;;;;38.46;32.00;99797.41;5051526;28;865;-71
2021/06/28 09:10:46;;;;;;;;;;;;;;;38.33;32.80;99792.78;5050199;28;1935;-72
2021/06/28 09:13:12;;;;;;;;;;;;;;;38.51;34.07;99796.41;5051128;28;1263;-72
2021/06/28 09:15:40;;;;;;;;;;;;;;;37.36;34.31;99794.91;5051471;28;877;-74
2021/06/28 09:18:19;;;;;;;;;;;;;;;35.14;39.13;99798.41;5051471;28;1053;-72
2021/06/28 09:20:46;;;;;;;;;;;;;;;33.26;42.50;99794.50;5051354;28;815;-72
2021/06/28 09:23:19;;;;;;;;;;;;;;;33.72;40.59;99791.94;5033393;28;1498;-71
2021/06/28 09:25:45;;;;;;;;;;;;;;;34.82;38.19;99784.59;5033295;28;1165;-68
2021/06/28 09:28:11;;;;;;;;;;;;;;;36.02;37.89;99773.25;5051389;28;889;-70
2021/06/28 09:30:44;;;;;;;;;;;;;;;34.87;38.24;99771.41;5051189;28;1918;-70
2021/06/28 09:33:11;;;;;;;;;;;;;;;32.80;41.31;99771.25;5033383;28;1168;-72
2021/06/28 09:35:38;;;;;;;;;;;;;;;33.53;43.56;99764.31;5051295;28;834;-72
2021/06/28 09:38:06;;;;;;;;;;;;;;;34.84;42.19;99764.69;5033283;28;1209;-69
2021/06/28 09:40:37;;;;;;;;;;;;;;;35.85;38.35;99774.69;5053916;28;893;-69
2021/06/28 09:43:24;;;;;;;;;;;;;;;35.49;38.52;99784.34;5055154;28;892;-71
2021/06/28 09:45:55;;;;;;;;;;;;;;;35.36;38.20;99796.84;5054973;28;873;-68
2021/06/28 09:48:22;;;;;;;;;;;;;;;35.28;37.15;99796.09;5055231;28;1271;-70
2021/06/28 09:50:49;;;;;;;;;;;;;;;34.57;38.28;99796.63;5055079;28;1894;-69
2021/06/28 09:53:25;;;;;;;;;;;;;;;35.27;38.25;99811.00;5055048;28;1200;-68
2021/06/28 09:55:51;;;;;;;;;;;;;;;35.48;37.69;99808.66;5054908;28;823;-69
2021/06/28 09:58:22;;;;;;;;;;;;;;;34.73;40.00;99808.13;5054911;28;862;-70
2021/06/28 10:00:50;;;;;;;;;;;;;;;33.70;43.08;99814.66;5037026;28;1176;-69
2021/06/28 10:03:39;;;;;;;;;;;;;;;32.34;46.21;99812.34;5055058;28;901;-71
2021/06/28 10:08:46;;;;;;;;;;;;;;;30.38;51.05;99808.22;5054590;28;727;-66
2021/06/28 10:11:18;;;;;;;;;;;;;;;30.27;52.42;99803.44;5054506;28;1910;-71
2021/06/28 10:13:52;;;;;;;;;;;;;;;31.33;50.67;99800.94;5054029;28;1187;-71
2021/06/28 10:16:19;;;;;;;;;;;;;;;32.07;49.17;99783.09;5054806;28;799;-69
2021/06/28 10:18:46;;;;;;;;;;;;;;;32.42;48.25;99785.94;5054907;28;842;-71
2021/06/28 10:21:12;;;;;;;;;;;;;;;32.73;46.18;99787.81;5054398;28;846;-70
2021/06/28 10:23:40;;;;;;;;;;;;;;;32.74;46.11;99782.84;5054283;28;834;-71
2021/06/28 10:26:06;;;;;;;;;;;;;;;32.74;46.23;99779.97;5054277;28;886;-70
2021/06/28 10:28:34;;;;;;;;;;;;;;;32.57;45.58;99776.78;5054187;28;861;-71
2021/06/28 10:31:01;;;;;;;;;;;;;;;32.28;44.81;99762.34;5054127;28;1898;-68
2021/06/28 10:33:28;;;;;;;;;;;;;;;32.13;45.77;99765.81;5054211;28;846;-67
2021/06/28 10:36:15;;;;;;;;;;;;;;;32.41;45.66;99764.38;5054114;28;803;-69
2021/06/28 10:38:44;;;;;;;;;;;;;;;32.97;45.63;99765.84;5053891;28;1134;-70
2021/06/28 10:41:10;;;;;;;;;;;;;;;33.38;44.17;99774.94;5054042;28;898;-69
2021/06/28 10:43:38;;;;;;;;;;;;;;;33.13;42.91;99772.47;5053925;28;802;-69
2021/06/28 10:46:10;;;;;;;;;;;;;;;33.26;42.62;99778.09;5053854;28;839;-70
2021/06/28 10:48:47;;;;;;;;;;;;;;;33.99;42.95;99788.78;5054028;28;794;-67
2021/06/28 10:51:14;;;;;;;;;;;;;;;34.47;41.11;99812.88;5053294;28;1894;-71
2021/06/28 10:53:41;;;;;;;;;;;;;;;34.82;39.63;99815.41;5053819;28;861;-70
2021/06/28 11:08:22;;;;;;;;;;;;;;;31.31;44.51;99788.53;5053793;28;660;-68
2021/06/28 11:10:48;;;;;;;;;;;;;;;31.14;44.11;99778.19;5053359;28;1992;-68
2021/06/28 11:13:35;;;;;;;;;;;;;;;31.03;45.05;99781.25;5053498;28;1560;-68
2021/06/28 11:16:19;;;;;;;;;;;;;;;30.71;44.05;99790.59;5052065;28;848;-67
2021/06/28 11:18:46;;;;;;;;;;;;;;;30.31;45.49;99801.84;5053387;28;806;-68
2021/06/28 11:21:33;;;;;;;;;;;;;;;30.09;46.35;99808.59;5053283;28;822;-67
2021/06/28 11:24:00;;;;;;;;;;;;;;;29.96;46.58;99822.78;5053117;28;1309;-67
2021/06/28 11:26:33;;;;;;;;;;;;;;;29.81;47.72;99828.13;5053247;28;814;-66
2021/06/28 11:29:00;;;;;;;;;;;;;;;29.73;48.97;99836.53;5053330;28;822;-67
2021/06/28 11:31:31;;;;;;;;;;;;;;;29.78;48.74;99832.06;5052965;28;1977;-67
2021/06/28 11:33:59;;;;;;;;;;;;;;;29.66;48.33;99835.03;5053028;28;807;-68
2021/06/28 11:36:35;;;;;;;;;;;;;;;29.65;48.97;99838.41;5052936;28;834;-67
2021/06/28 11:39:05;;;;;;;;;;;;;;;29.66;49.36;99839.94;5052932;28;799;-67
2021/06/28 11:41:32;;;;;;;;;;;;;;;29.69;50.52;99841.72;5034967;28;1482;-68
2021/06/28 11:44:00;;;;;;;;;;;;;;;29.98;51.78;99842.97;5035002;28;1294;-67
2021/06/28 11:46:46;;;;;;;;;;;;;;;30.19;54.14;99834.63;5052722;28;853;-67
2021/06/28 11:49:21;;;;;;;;;;;;;;;30.40;54.54;99825.56;5053003;28;858;-67
2021/06/28 11:51:48;;;;;;;;;;;;;;;30.66;55.55;99822.03;5052652;28;1951;-67
2021/06/28 11:54:16;;;;;;;;;;;;;;;31.02;55.58;99810.31;5052684;28;839;-69
2021/06/28 11:56:42;;;;;;;;;;;;;;;31.08;56.70;99803.19;5052560;28;889;-66
2021/06/28 11:59:11;;;;;;;;;;;;;;;30.88;57.48;99806.69;5034623;28;1191;-67
2021/06/28 12:01:42;;;;;;;;;;;;;;;31.27;54.02;99805.22;5052154;28;803;-67
2021/06/28 12:04:14;;;;;;;;;;;;;;;31.44;50.10;99811.38;5052311;28;893;-68
2021/06/28 12:06:41;;;;;;;;;;;;;;;31.67;48.75;99817.44;5052344;28;846;-68
2021/06/28 12:09:17;;;;;;;;;;;;;;;31.59;48.28;99827.97;5052322;28;807;-68
2021/06/28 12:12:02;;;;;;;;;;;;;;;31.78;48.03;99827.09;5052313;28;1949;-68
2021/06/28 12:14:31;;;;;;;;;;;;;;;32.14;49.11;99819.56;5051970;28;1316;-67
2021/06/28 12:16:58;;;;;;;;;;;;;;;31.68;49.04;99809.63;5052335;28;870;-67
2021/06/28 12:19:24;;;;;;;;;;;;;;;31.01;50.96;99817.38;5052209;28;965;-68
2021/06/28 12:21:51;;;;;;;;;;;;;;;30.46;51.79;99837.66;5052184;28;913;-67
2021/06/28 12:24:18;;;;;;;;;;;;;;;29.79;53.65;99840.09;5052028;28;857;-68
2021/06/28 12:27:01;;;;;;;;;;;;;;;29.46;54.90;99844.03;5052053;28;803;-68
2021/06/28 12:29:32;;;;;;;;;;;;;;;28.84;56.39;99847.44;5051937;28;885;-65
2021/06/28 12:32:09;;;;;;;;;;;;;;;28.10;57.83;99861.28;5051896;28;1914;-67
2021/06/28 12:34:36;;;;;;;;;;;;;;;27.42;60.49;99869.25;5051870;28;838;-67
2021/06/28 12:37:04;;;;;;;;;;;;;;;26.97;61.44;99869.22;5051878;28;834;-69
2021/06/28 12:39:31;;;;;;;;;;;;;;;26.68;62.70;99857.88;5052046;28;811;-69
2021/06/28 12:42:17;;;;;;;;;;;;;;;26.51;63.67;99854.22;5052355;28;766;-66
2021/06/28 12:44:45;;;;;;;;;;;;;;;26.36;64.15;99860.09;5051670;28;1169;-67
2021/06/28 12:47:13;;;;;;;;;;;;;;;26.24;64.48;99876.31;5051681;28;818;-68
2021/06/28 12:49:40;;;;;;;;;;;;;;;26.04;64.94;99873.66;5051962;28;827;-69
2021/06/28 12:52:25;;;;;;;;;;;;;;;25.95;65.63;99874.66;5051881;28;1882;-69
2021/06/28 12:55:05;;;;;;;;;;;;;;;25.89;66.10;99873.06;5051962;28;865;-69
2021/06/28 12:57:32;;;;;;;;;;;;;;;25.74;66.76;99888.16;5051626;28;878;-69
2021/06/28 12:59:59;;;;;;;;;;;;;;;25.52;67.69;99890.81;5051508;28;842;-69
2021/06/28 13:02:29;;;;;;;;;;;;;;;25.30;68.58;99900.72;5051555;28;865;-70
2021/06/28 13:05:03;;;;;;;;;;;;;;;25.12;68.18;99901.06;5051614;28;834;-69
2021/06/28 13:07:30;;;;;;;;;;;;;;;25.03;68.25;99896.38;5051698;28;830;-69
2021/06/28 13:09:58;;;;;;;;;;;;;;;25.01;68.85;99888.38;5051682;28;822;-68
2021/06/28 13:12:25;;;;;;;;;;;;;;;24.38;71.41;99879.75;5051931;28;1947;-67
2021/06/28 13:15:14;;;;;;;;;;;;;;;23.90;75.79;99872.53;5055770;28;1428;-67
2021/06/28 13:17:41;;;;;;;;;;;;;;;24.07;79.34;99861.44;5040412;28;1366;-65
2021/06/28 13:20:18;;;;;;;;;;;;;;;25.16;78.61;99853.53;5058226;28;803;-67
2021/06/28 13:22:45;;;;;;;;;;;;;;;25.76;77.78;99848.78;5039989;28;1269;-68
2021/06/28 13:25:21;;;;;;;;;;;;;;;25.84;77.67;99837.78;5057948;28;838;-68
2021/06/28 13:27:47;;;;;;;;;;;;;;;26.22;77.32;99836.38;5057915;28;799;-68
2021/06/28 13:30:21;;;;;;;;;;;;;;;26.76;77.94;99840.38;5039981;28;1188;-70
2021/06/28 13:32:49;;;;;;;;;;;;;;;27.69;76.40;99851.34;5057937;28;1918;-69